createdAt,value
2022-07-31T00:01:08.185Z,99683.28
2022-07-31T00:04:11.185Z,99684.56
2022-07-31T00:07:13.711Z,99688.72
2022-07-31T00:10:16.847Z,99690.75
2022-07-31T00:13:19.445Z,99693.28
2022-07-31T00:16:44.156Z,99690.84
2022-07-31T00:19:47.211Z,99686.31
2022-07-31T00:22:50.642Z,99688.41
2022-07-31T00:25:53.218Z,99688.16
2022-07-31T00:28:56.085Z,99681.03
2022-07-31T00:31:58.723Z,99689.63
2022-07-31T00:35:01.857Z,99685.66
2022-07-31T00:38:26.187Z,99686.53
2022-07-31T00:41:38.115Z,99688.63
2022-07-31T00:44:41.145Z,99686.03
2022-07-31T00:47:44.208Z,99681.25
2022-07-31T00:50:46.926Z,99685.12
2022-07-31T00:53:50.004Z,99675.91
2022-07-31T00:56:52.707Z,99678.97
2022-07-31T00:59:55.807Z,99690.13
2022-07-31T01:02:58.486Z,99687.25
2022-07-31T01:06:01.742Z,99692.31
2022-07-31T01:09:05.064Z,99685.41
2022-07-31T01:12:21.342Z,99687.63
2022-07-31T01:15:26.054Z,99686.13
2022-07-31T01:18:33.158Z,99694.47
2022-07-31T01:21:42.991Z,99692.16
2022-07-31T01:25:30.999Z,99692.03
2022-07-31T01:29:03.462Z,99695.84
2022-07-31T01:32:09.974Z,99702.00
2022-07-31T01:35:21.116Z,99707.94
2022-07-31T01:38:30.134Z,99700.81
2022-07-31T01:41:38.364Z,99707.66
2022-07-31T01:44:44.585Z,99719.22
2022-07-31T01:47:49.128Z,99707.84
2022-07-31T01:50:57.449Z,99706.91
2022-07-31T01:54:02.106Z,99706.47
2022-07-31T01:57:07.056Z,99703.34
2022-07-31T02:00:28.614Z,99700.28
2022-07-31T02:03:42.697Z,99701.47
2022-07-31T02:06:50.921Z,99695.03
2022-07-31T02:09:58.703Z,99699.00
2022-07-31T02:13:02.891Z,99696.75
2022-07-31T02:16:06.764Z,99687.53
2022-07-31T02:19:11.976Z,99697.69
2022-07-31T02:22:15.477Z,99686.03
2022-07-31T02:25:18.182Z,99690.22
2022-07-31T02:28:22.651Z,99686.69
2022-07-31T02:31:26.356Z,99684.09
2022-07-31T02:34:30.887Z,99689.91
2022-07-31T02:37:41.179Z,99684.69
2022-07-31T02:40:45.250Z,99684.66
2022-07-31T02:43:50.092Z,99681.25
2022-07-31T02:46:53.044Z,99675.81
2022-07-31T02:49:58.064Z,99679.78
2022-07-31T02:53:01.048Z,99668.34
2022-07-31T02:56:06.572Z,99668.78
2022-07-31T02:59:10.066Z,99669.44
2022-07-31T03:02:13.981Z,99673.75
2022-07-31T03:05:17.001Z,99673.84
2022-07-31T03:08:20.144Z,99675.34
2022-07-31T03:11:24.810Z,99678.50
2022-07-31T03:14:32.692Z,99678.88
2022-07-31T03:17:41.061Z,99680.87
2022-07-31T03:20:51.760Z,99689.37
2022-07-31T03:23:55.323Z,99688.09
2022-07-31T03:27:00.207Z,99681.00
2022-07-31T03:30:04.983Z,99673.41
2022-07-31T03:33:08.992Z,99680.97
2022-07-31T03:36:12.820Z,99685.50
2022-07-31T03:39:16.701Z,99681.63
2022-07-31T03:42:20.110Z,99675.44
2022-07-31T03:45:23.515Z,99676.47
2022-07-31T03:48:28.237Z,99678.88
2022-07-31T03:51:32.930Z,99673.50
2022-07-31T03:54:35.571Z,99675.72
2022-07-31T03:57:38.862Z,99675.78
2022-07-31T04:00:45.519Z,99679.59
2022-07-31T04:03:59.458Z,99676.28
2022-07-31T04:07:03.052Z,99677.28
2022-07-31T04:10:07.239Z,99678.31
2022-07-31T04:13:10.815Z,99679.69
2022-07-31T04:16:13.766Z,99679.44
2022-07-31T04:19:16.275Z,99680.06
2022-07-31T04:22:19.584Z,99682.91
2022-07-31T04:25:22.696Z,99684.47
2022-07-31T04:28:27.389Z,99694.63
2022-07-31T04:31:30.758Z,99687.63
2022-07-31T04:34:34.264Z,99683.22
2022-07-31T04:37:36.833Z,99679.81
2022-07-31T04:40:40.218Z,99679.41
2022-07-31T04:43:43.307Z,99675.84
2022-07-31T04:46:46.537Z,99688.09
2022-07-31T04:49:50.365Z,99681.84
2022-07-31T04:52:53.994Z,99681.44
2022-07-31T04:56:16.102Z,99676.38
2022-07-31T04:59:21.634Z,99675.25
2022-07-31T05:02:26.207Z,99677.94
2022-07-31T05:05:29.336Z,99676.81
2022-07-31T05:08:31.969Z,99694.56
2022-07-31T05:11:35.973Z,99682.28
2022-07-31T05:14:39.414Z,99694.81
2022-07-31T05:17:42.302Z,99690.31
2022-07-31T05:20:45.716Z,99689.22
2022-07-31T05:23:49.478Z,99677.09
2022-07-31T05:26:52.471Z,99686.38
2022-07-31T05:29:56.913Z,99696.87
2022-07-31T05:32:59.845Z,99683.44
2022-07-31T05:36:04.638Z,99691.91
2022-07-31T05:39:09.735Z,99692.41
2022-07-31T05:42:20.706Z,99687.63
2022-07-31T05:45:24.400Z,99691.66
2022-07-31T05:48:28.121Z,99695.72
2022-07-31T05:51:30.725Z,99702.28
2022-07-31T05:54:34.882Z,99703.91
2022-07-31T05:57:43.170Z,99702.84
2022-07-31T06:00:49.180Z,99708.78
2022-07-31T06:03:52.783Z,99708.81
2022-07-31T06:06:56.992Z,99700.81
2022-07-31T06:10:01.514Z,99714.56
2022-07-31T06:13:05.994Z,99712.06
2022-07-31T06:16:13.856Z,99709.56
2022-07-31T06:19:16.741Z,99708.03
2022-07-31T06:22:19.750Z,99709.06
2022-07-31T06:25:22.603Z,99711.00
2022-07-31T06:28:37.862Z,99700.75
2022-07-31T06:31:48.719Z,99706.78
2022-07-31T06:34:51.890Z,99699.16
2022-07-31T06:37:54.570Z,99701.78
2022-07-31T06:40:57.837Z,99704.97
2022-07-31T06:44:01.645Z,99721.34
2022-07-31T06:47:07.421Z,99707.12
2022-07-31T06:50:25.534Z,99717.03
2022-07-31T06:53:28.832Z,99718.25
2022-07-31T06:56:32.172Z,99714.56
2022-07-31T06:59:39.978Z,99724.69
2022-07-31T07:02:43.567Z,99705.69
2022-07-31T07:05:49.686Z,99712.28
2022-07-31T07:08:53.067Z,99704.78
2022-07-31T07:11:57.428Z,99709.03
2022-07-31T07:15:00.329Z,99693.59
2022-07-31T07:18:03.384Z,99704.00
2022-07-31T07:21:07.664Z,99700.38
2022-07-31T07:24:12.222Z,99701.72
2022-07-31T07:27:15.231Z,99702.16
2022-07-31T07:30:18.664Z,99698.34
2022-07-31T07:33:41.292Z,99684.12
2022-07-31T07:36:44.815Z,99687.09
2022-07-31T07:39:48.390Z,99690.84
2022-07-31T07:42:58.762Z,99689.47
2022-07-31T07:46:04.179Z,99697.38
2022-07-31T07:49:07.520Z,99698.03
2022-07-31T07:52:10.735Z,99688.09
2022-07-31T07:55:15.546Z,99695.72
2022-07-31T07:58:21.226Z,99695.28
2022-07-31T08:01:26.843Z,99696.28
2022-07-31T08:04:31.846Z,99709.41
2022-07-31T08:07:42.507Z,99695.84
2022-07-31T08:10:49.176Z,99713.00
2022-07-31T08:13:53.353Z,99706.59
2022-07-31T08:16:58.252Z,99725.84
2022-07-31T08:20:00.967Z,99718.37
2022-07-31T08:23:06.959Z,99728.22
2022-07-31T08:26:09.766Z,99727.91
2022-07-31T08:29:12.780Z,99717.41
2022-07-31T08:32:19.737Z,99723.31
2022-07-31T08:35:23.750Z,99709.44
2022-07-31T08:38:26.435Z,99728.13
2022-07-31T08:41:38.850Z,99717.28
2022-07-31T08:44:44.557Z,99728.81
2022-07-31T08:47:53.130Z,99732.03
2022-07-31T08:50:56.591Z,99713.50
2022-07-31T08:54:07.465Z,99726.97
2022-07-31T08:57:13.057Z,99729.66
2022-07-31T09:00:19.768Z,99713.00
2022-07-31T09:03:22.946Z,99724.16
2022-07-31T09:06:26.794Z,99728.25
2022-07-31T09:09:41.233Z,99732.72
2022-07-31T09:12:54.869Z,99732.72
2022-07-31T09:15:59.239Z,99745.47
2022-07-31T09:19:52.755Z,99738.34
2022-07-31T09:22:31.309Z,99745.78
2022-07-31T09:25:34.710Z,99742.53
2022-07-31T09:28:41.300Z,99761.62
2022-07-31T09:31:44.517Z,99741.91
2022-07-31T09:34:49.556Z,99743.66
2022-07-31T09:38:00.910Z,99745.53
2022-07-31T09:41:55.442Z,99746.62
2022-07-31T09:44:48.588Z,99739.12
2022-07-31T09:48:15.171Z,99748.97
2022-07-31T09:51:23.103Z,99743.59
2022-07-31T09:54:27.875Z,99754.66
2022-07-31T09:57:32.335Z,99744.22
2022-07-31T10:00:35.291Z,99750.09
2022-07-31T10:03:41.709Z,99755.31
2022-07-31T10:06:48.255Z,99749.31
2022-07-31T10:09:56.197Z,99754.56
2022-07-31T10:13:06.272Z,99771.16
2022-07-31T10:16:09.873Z,99765.81
2022-07-31T10:19:16.184Z,99759.69
2022-07-31T10:22:22.461Z,99765.22
2022-07-31T10:25:28.893Z,99757.63
2022-07-31T10:28:36.554Z,99760.50
2022-07-31T10:31:39.470Z,99753.34
2022-07-31T10:34:42.604Z,99764.78
2022-07-31T10:37:55.279Z,99762.03
2022-07-31T10:41:18.166Z,99766.69
2022-07-31T10:44:42.347Z,99756.72
2022-07-31T10:47:56.856Z,99768.75
2022-07-31T10:51:06.445Z,99766.00
2022-07-31T10:54:14.413Z,99785.66
2022-07-31T10:57:56.726Z,99779.69
2022-07-31T11:01:07.414Z,99779.87
2022-07-31T11:04:11.662Z,99781.63
2022-07-31T11:07:19.976Z,99782.72
2022-07-31T11:10:26.044Z,99792.31
2022-07-31T11:13:36.630Z,99797.66
2022-07-31T11:16:51.349Z,99798.38
2022-07-31T11:19:57.531Z,99811.53
2022-07-31T11:23:38.403Z,99806.06
2022-07-31T11:31:00.560Z,99805.44
2022-07-31T11:34:04.181Z,99809.97
2022-07-31T11:37:08.173Z,99803.13
2022-07-31T11:40:32.953Z,99804.06
2022-07-31T11:43:37.850Z,99813.59
2022-07-31T11:46:40.872Z,99820.97
2022-07-31T11:49:48.935Z,99820.91
2022-07-31T11:53:02.546Z,99810.09
2022-07-31T11:56:05.937Z,99800.78
2022-07-31T11:59:09.201Z,99796.50
2022-07-31T12:02:33.562Z,99810.63
2022-07-31T12:05:44.846Z,99817.66
2022-07-31T12:08:50.963Z,99789.53
2022-07-31T12:11:56.667Z,99810.94
2022-07-31T12:14:59.561Z,99818.00
2022-07-31T12:18:05.338Z,99808.97
2022-07-31T12:21:09.628Z,99825.16
2022-07-31T12:24:14.516Z,99812.06
2022-07-31T12:27:19.938Z,99823.06
2022-07-31T12:30:30.030Z,99823.66
2022-07-31T12:33:56.890Z,99820.69
2022-07-31T12:37:22.485Z,99828.59
2022-07-31T12:40:27.862Z,99828.44
2022-07-31T12:43:31.607Z,99829.41
2022-07-31T12:46:36.777Z,99836.53
2022-07-31T12:49:39.914Z,99840.16
2022-07-31T12:52:45.556Z,99837.69
2022-07-31T12:55:51.190Z,99842.25
2022-07-31T12:58:53.959Z,99850.56
2022-07-31T13:01:57.084Z,99850.66
2022-07-31T13:05:02.885Z,99853.56
2022-07-31T13:08:08.213Z,99856.63
2022-07-31T13:11:11.470Z,99848.19
2022-07-31T13:14:19.721Z,99853.97
2022-07-31T13:17:23.068Z,99852.34
2022-07-31T13:20:32.093Z,99847.31
2022-07-31T13:23:34.742Z,99852.34
2022-07-31T13:26:40.084Z,99856.37
2022-07-31T13:29:43.055Z,99856.87
2022-07-31T13:32:45.970Z,99853.44
2022-07-31T13:35:48.600Z,99861.94
2022-07-31T13:38:52.104Z,99852.12
2022-07-31T13:41:54.652Z,99845.00
2022-07-31T13:44:59.709Z,99838.00
2022-07-31T13:48:08.632Z,99851.16
2022-07-31T13:51:13.302Z,99848.31
2022-07-31T13:54:16.595Z,99846.63
2022-07-31T13:57:20.660Z,99849.88
2022-07-31T14:00:23.464Z,99849.25
2022-07-31T14:03:26.493Z,99850.72
2022-07-31T14:06:31.232Z,99846.47
2022-07-31T14:09:51.390Z,99850.22
2022-07-31T14:12:58.937Z,99849.16
2022-07-31T14:16:01.851Z,99844.88
2022-07-31T14:19:04.694Z,99845.19
2022-07-31T14:22:11.402Z,99841.59
2022-07-31T14:25:14.380Z,99834.06
2022-07-31T14:28:17.382Z,99841.91
2022-07-31T14:31:20.344Z,99842.59
2022-07-31T14:34:23.343Z,99846.22
2022-07-31T14:37:41.858Z,99860.94
2022-07-31T14:40:45.306Z,99853.06
2022-07-31T14:43:48.151Z,99856.72
2022-07-31T14:46:54.533Z,99858.22
2022-07-31T14:50:09.102Z,99859.81
2022-07-31T14:53:14.259Z,99871.69
2022-07-31T14:56:34.490Z,99871.59
2022-07-31T14:59:40.067Z,99873.09
2022-07-31T15:02:43.807Z,99875.53
2022-07-31T15:06:39.916Z,99856.66
2022-07-31T15:09:09.897Z,99860.31
2022-07-31T15:12:16.805Z,99849.22
2022-07-31T15:15:19.703Z,99864.53
2022-07-31T15:18:25.811Z,99846.50
2022-07-31T15:21:39.449Z,99860.91
2022-07-31T15:24:49.306Z,99852.78
2022-07-31T15:27:54.952Z,99851.47
2022-07-31T15:31:01.034Z,99846.50
2022-07-31T15:34:04.160Z,99840.72
2022-07-31T15:37:09.129Z,99834.00
2022-07-31T15:40:14.558Z,99833.81
2022-07-31T15:43:17.596Z,99819.91
2022-07-31T15:46:21.275Z,99805.59
2022-07-31T15:49:24.474Z,99815.59
2022-07-31T15:52:27.462Z,99822.56
2022-07-31T15:55:31.631Z,99817.34
2022-07-31T15:58:36.926Z,99818.22
2022-07-31T16:01:39.983Z,99822.00
2022-07-31T16:04:52.368Z,99814.34
2022-07-31T16:08:30.274Z,99821.34
2022-07-31T16:11:19.506Z,99807.28
2022-07-31T16:14:22.320Z,99818.00
2022-07-31T16:17:37.845Z,99810.19
2022-07-31T16:20:41.138Z,99822.38
2022-07-31T16:23:45.458Z,99817.87
2022-07-31T16:26:50.739Z,99816.72
2022-07-31T16:29:59.570Z,99823.41
2022-07-31T16:33:06.455Z,99813.91
2022-07-31T16:36:09.394Z,99809.22
2022-07-31T16:39:22.081Z,99817.22
2022-07-31T16:42:25.627Z,99809.44
2022-07-31T16:45:41.002Z,99793.91
2022-07-31T16:48:48.701Z,99793.56
2022-07-31T16:51:52.144Z,99813.03
2022-07-31T16:54:55.346Z,99816.69
2022-07-31T16:57:58.423Z,99819.34
2022-07-31T17:01:04.103Z,99810.22
2022-07-31T17:04:06.943Z,99811.81
2022-07-31T17:07:11.007Z,99812.97
2022-07-31T17:14:18.107Z,99823.59
2022-07-31T17:17:23.593Z,99809.34
2022-07-31T17:25:17.451Z,99807.84
2022-07-31T17:28:20.495Z,99804.28
2022-07-31T17:31:23.931Z,99816.28
2022-07-31T17:34:27.063Z,99822.94
2022-07-31T17:37:32.048Z,99820.06
2022-07-31T17:40:44.306Z,99822.03
2022-07-31T17:43:50.575Z,99829.16
2022-07-31T17:47:06.901Z,99837.28
2022-07-31T17:50:10.600Z,99837.78
2022-07-31T17:53:14.065Z,99832.72
2022-07-31T17:56:38.545Z,99825.75
2022-07-31T17:59:42.543Z,99838.56
2022-07-31T18:02:46.507Z,99849.03
2022-07-31T18:05:49.420Z,99843.09
2022-07-31T18:08:52.564Z,99848.03
2022-07-31T18:11:56.640Z,99833.09
2022-07-31T18:15:35.741Z,99833.34
2022-07-31T18:18:39.238Z,99838.28
2022-07-31T18:21:41.829Z,99840.94
2022-07-31T18:24:44.973Z,99842.66
2022-07-31T18:27:48.224Z,99831.41
2022-07-31T18:30:53.547Z,99843.97
2022-07-31T18:33:56.191Z,99845.19
2022-07-31T18:36:59.149Z,99851.25
2022-07-31T18:40:02.102Z,99843.97
2022-07-31T18:43:06.241Z,99849.91
2022-07-31T18:46:08.962Z,99844.72
2022-07-31T18:50:58.098Z,99848.06
2022-07-31T18:52:35.665Z,99848.59
2022-07-31T18:55:39.006Z,99858.72
2022-07-31T18:58:44.305Z,99861.09
2022-07-31T19:01:48.048Z,99863.91
2022-07-31T19:04:50.976Z,99859.84
2022-07-31T19:07:54.150Z,99853.88
2022-07-31T19:10:57.262Z,99862.09
2022-07-31T19:14:01.616Z,99863.87
2022-07-31T19:17:04.834Z,99871.53
2022-07-31T19:20:12.624Z,99874.88
2022-07-31T19:23:35.830Z,99879.13
2022-07-31T19:26:38.965Z,99888.72
2022-07-31T19:29:41.615Z,99890.28
2022-07-31T19:32:44.820Z,99899.69
2022-07-31T19:35:55.357Z,99895.37
2022-07-31T19:39:01.851Z,99895.31
2022-07-31T19:42:12.051Z,99889.16
2022-07-31T19:45:25.266Z,99897.25
2022-07-31T19:48:29.417Z,99895.16
2022-07-31T19:51:33.058Z,99884.63
2022-07-31T19:54:39.926Z,99884.34
2022-07-31T19:57:43.158Z,99890.03
2022-07-31T20:00:46.826Z,99877.69
2022-07-31T20:03:51.220Z,99884.22
2022-07-31T20:06:56.149Z,99879.34
2022-07-31T20:09:59.141Z,99875.53
2022-07-31T20:13:03.331Z,99874.62
2022-07-31T20:16:28.678Z,99871.91
2022-07-31T20:19:32.094Z,99867.44
2022-07-31T20:23:31.137Z,99861.19
2022-07-31T20:26:40.545Z,99866.19
2022-07-31T20:30:25.154Z,99865.34
2022-07-31T20:33:28.151Z,99870.31
2022-07-31T20:36:31.162Z,99875.47
2022-07-31T20:39:34.601Z,99867.56
2022-07-31T20:42:37.500Z,99872.13
2022-07-31T20:45:41.585Z,99867.88
2022-07-31T20:48:45.325Z,99874.09
2022-07-31T20:51:53.077Z,99874.94
2022-07-31T20:55:16.031Z,99881.66
2022-07-31T20:58:21.380Z,99883.31
2022-07-31T21:01:26.150Z,99877.44
2022-07-31T21:04:29.311Z,99875.94
2022-07-31T21:07:32.439Z,99879.53
2022-07-31T21:11:06.744Z,99877.94
2022-07-31T21:14:10.072Z,99886.13
2022-07-31T21:17:13.063Z,99884.72
2022-07-31T21:20:16.108Z,99890.44
2022-07-31T21:23:19.933Z,99894.63
2022-07-31T21:26:24.261Z,99892.44
2022-07-31T21:29:27.668Z,99893.50
2022-07-31T21:32:31.804Z,99896.81
2022-07-31T21:35:39.822Z,99895.44
2022-07-31T21:38:43.340Z,99902.09
2022-07-31T21:41:46.448Z,99898.62
2022-07-31T21:44:49.313Z,99893.44
2022-07-31T21:47:53.819Z,99888.28
2022-07-31T21:50:57.384Z,99901.19
2022-07-31T21:54:00.391Z,99906.38
2022-07-31T21:57:03.060Z,99902.50
2022-07-31T22:00:13.598Z,99914.16
2022-07-31T22:03:17.026Z,99912.03
2022-07-31T22:06:38.322Z,99910.88
2022-07-31T22:09:41.445Z,99915.88
2022-07-31T22:12:45.182Z,99913.88
2022-07-31T22:15:58.314Z,99912.38
2022-07-31T22:19:04.747Z,99914.91
2022-07-31T22:22:08.410Z,99915.91
2022-07-31T22:25:12.767Z,99907.88
2022-07-31T22:28:18.918Z,99914.75
2022-07-31T22:31:21.808Z,99915.91
2022-07-31T22:34:37.046Z,99906.59
2022-07-31T22:37:40.996Z,99905.91
2022-07-31T22:40:44.236Z,99905.75
2022-07-31T22:44:11.541Z,99903.56
2022-07-31T22:47:10.552Z,99906.25
2022-07-31T22:50:14.149Z,99908.28
2022-07-31T22:53:17.599Z,99901.41
2022-07-31T22:56:21.174Z,99900.59
2022-07-31T22:59:24.079Z,99899.94
2022-07-31T23:02:28.350Z,99892.59
2022-07-31T23:06:02.999Z,99892.25
2022-07-31T23:08:55.071Z,99886.25
2022-07-31T23:11:59.520Z,99880.44
2022-07-31T23:15:02.313Z,99883.94
2022-07-31T23:18:06.113Z,99889.94
2022-07-31T23:21:09.812Z,99890.94
2022-07-31T23:24:13.479Z,99894.41
2022-07-31T23:27:16.198Z,99883.38
2022-07-31T23:30:19.282Z,99890.09
2022-07-31T23:33:22.074Z,99897.28
2022-07-31T23:36:25.415Z,99887.88
2022-07-31T23:39:28.723Z,99883.22
2022-07-31T23:42:40.444Z,99888.38
2022-07-31T23:45:44.100Z,99888.72
2022-07-31T23:48:47.073Z,99890.53
2022-07-31T23:51:49.827Z,99883.69
2022-07-31T23:54:52.852Z,99884.72
2022-07-31T23:57:55.859Z,99882.34
